Time;durP1;ratioP1;P1;durP2;ratioP2;P2;SDS_P1;SDS_P2;PMS_P1;PMS_P2;Temp;Humidity;BMP_temperature;BMP_pressure;BME280_temperature;BME280_humidity;BME280_pressure;Samples;Min_cycle;Max_cycle;Signal;HPM_P1;HPM_P2
2021/09/27 00:01:39;;;;;;;36.80;34.20;;;17.00;93.00;;;;;;5086323;28;20453;-73
2021/09/27 00:04:06;;;;;;;36.30;33.70;;;17.00;92.90;;;;;;5086786;28;20842;-74
2021/09/27 00:06:33;;;;;;;37.63;34.77;;;17.00;93.00;;;;;;5086182;28;20461;-73
2021/09/27 00:09:00;;;;;;;36.80;34.10;;;17.00;93.00;;;;;;5087404;28;20457;-74
2021/09/27 00:11:27;;;;;;;38.20;35.30;;;16.90;93.10;;;;;;5089185;28;20479;-73
2021/09/27 00:13:59;;;;;;;37.30;34.53;;;16.90;93.30;;;;;;5091314;28;20458;-74
2021/09/27 00:16:27;;;;;;;36.53;33.70;;;16.90;93.30;;;;;;5082367;28;20461;-73
2021/09/27 00:18:54;;;;;;;35.00;32.60;;;16.80;93.40;;;;;;5088559;28;20460;-74
2021/09/27 00:21:24;;;;;;;35.93;33.33;;;16.70;93.60;;;;;;5082733;28;20820;-73
2021/09/27 00:23:51;;;;;;;35.37;32.70;;;16.70;93.70;;;;;;5093881;28;20453;-73
2021/09/27 00:26:21;;;;;;;36.67;33.87;;;16.70;93.60;;;;;;5083772;28;20453;-74
2021/09/27 00:28:48;;;;;;;37.17;34.40;;;16.70;93.60;;;;;;5089413;28;20457;-74
2021/09/27 00:31:17;;;;;;;36.03;33.13;;;16.70;93.60;;;;;;5082083;28;20492;-73
2021/09/27 00:33:44;;;;;;;36.17;33.40;;;16.60;93.50;;;;;;5087239;28;21109;-74
2021/09/27 00:36:12;;;;;;;36.20;33.60;;;16.70;93.20;;;;;;5086215;28;20453;-74
2021/09/27 00:38:40;;;;;;;36.37;33.57;;;16.60;93.20;;;;;;5088698;28;20456;-74
2021/09/27 00:41:10;;;;;;;36.57;33.97;;;16.60;93.10;;;;;;5082302;28;21010;-74
2021/09/27 00:43:38;;;;;;;36.30;33.60;;;16.50;93.30;;;;;;5092921;28;20460;-74
2021/09/27 00:46:08;;;;;;;34.60;32.00;;;16.50;93.40;;;;;;5085531;28;20449;-74
2021/09/27 00:48:37;;;;;;;35.17;32.67;;;16.40;93.60;;;;;;5086356;28;20846;-75
2021/09/27 00:51:08;;;;;;;36.53;33.77;;;16.30;93.90;;;;;;5080777;28;20484;-75
2021/09/27 00:53:39;;;;;;;34.43;31.83;;;16.30;94.20;;;;;;5081037;28;20460;-75
2021/09/27 00:56:08;;;;;;;34.90;32.40;;;16.20;94.30;;;;;;5082289;28;20445;-75
2021/09/27 00:58:36;;;;;;;35.47;32.80;;;16.20;94.50;;;;;;5096097;28;20452;-75
2021/09/27 01:01:04;;;;;;;37.00;34.13;;;16.30;94.50;;;;;;5088256;28;20495;-75
2021/09/27 01:03:31;;;;;;;36.70;33.90;;;16.20;94.50;;;;;;5085444;28;20961;-74
2021/09/27 01:06:12;;;;;;;36.63;33.93;;;16.20;94.50;;;;;;5086667;28;20453;-74
2021/09/27 01:08:49;;;;;;;34.60;32.10;;;16.20;94.60;;;;;;5084134;28;20457;-74
2021/09/27 01:11:37;;;;;;;36.80;34.20;;;16.20;94.70;;;;;;5086979;28;20480;-75
2021/09/27 01:14:24;;;;;;;36.73;33.83;;;16.20;94.80;;;;;;5085224;28;20487;-74
2021/09/27 01:16:58;;;;;;;35.20;32.60;;;16.30;94.60;;;;;;5080588;28;20454;-74
2021/09/27 01:20:03;;;;;;;37.53;34.53;;;16.30;94.60;;;;;;5085589;28;20475;-74
2021/09/27 01:22:55;;;;;;;37.20;34.07;;;16.30;94.40;;;;;;5045237;28;20449;-74
2021/09/27 01:25:46;;;;;;;35.70;33.10;;;16.30;94.30;;;;;;5086305;28;20463;-75
2021/09/27 01:28:34;;;;;;;34.17;31.57;;;16.20;94.40;;;;;;5082706;28;20460;-74
2021/09/27 01:31:36;;;;;;;34.20;31.50;;;16.20;94.50;;;;;;5082784;28;21080;-74
2021/09/27 01:34:12;;;;;;;35.30;32.70;;;16.30;94.60;;;;;;5083487;28;20465;-75
2021/09/27 01:36:50;;;;;;;34.90;32.20;;;16.30;94.40;;;;;;5082452;28;20464;-75
2021/09/27 01:39:22;;;;;;;35.73;33.23;;;16.30;94.30;;;;;;5084494;28;20461;-75
2021/09/27 01:42:07;;;;;;;35.97;33.27;;;16.40;94.20;;;;;;5096082;28;20459;-74
2021/09/27 01:44:40;;;;;;;34.43;31.90;;;16.40;93.90;;;;;;5090598;28;20453;-74
2021/09/27 01:47:14;;;;;;;34.33;31.83;;;16.40;93.90;;;;;;5088873;28;20459;-75
2021/09/27 01:49:49;;;;;;;33.97;31.53;;;16.40;93.80;;;;;;5080894;28;20469;-74
2021/09/27 01:52:25;;;;;;;33.87;31.40;;;16.40;93.80;;;;;;5088017;28;20471;-75
2021/09/27 01:54:56;;;;;;;35.07;32.40;;;16.40;93.90;;;;;;5088288;28;20445;-76
2021/09/27 01:57:29;;;;;;;34.60;32.20;;;16.50;93.80;;;;;;5084555;28;21336;-74
2021/09/27 02:00:02;;;;;;;33.77;31.37;;;16.50;93.80;;;;;;5088295;28;20472;-74
2021/09/27 02:02:36;;;;;;;34.80;32.30;;;16.60;93.50;;;;;;5086585;28;20962;-74
2021/09/27 02:05:11;;;;;;;34.20;31.60;;;16.60;93.30;;;;;;5090880;28;20940;-74
2021/09/27 02:07:45;;;;;;;35.30;32.70;;;16.60;93.20;;;;;;5090872;28;20448;-74
2021/09/27 02:10:17;;;;;;;36.07;33.17;;;16.60;93.30;;;;;;5093492;28;20479;-74
2021/09/27 02:12:50;;;;;;;35.53;32.83;;;16.70;92.90;;;;;;5079178;28;20469;-74
2021/09/27 02:15:23;;;;;;;35.00;32.30;;;16.70;92.80;;;;;;5087434;28;20457;-75
2021/09/27 02:17:56;;;;;;;34.40;31.67;;;16.70;92.80;;;;;;5089579;28;20457;-76
2021/09/27 02:20:28;;;;;;;34.70;32.00;;;16.60;92.90;;;;;;5089101;28;20569;-74
2021/09/27 02:23:02;;;;;;;33.60;31.10;;;16.60;93.10;;;;;;5089966;28;20937;-73
2021/09/27 02:25:32;;;;;;;33.67;31.37;;;16.60;93.10;;;;;;5089494;28;20555;-74
2021/09/27 02:28:01;;;;;;;35.53;32.93;;;16.60;93.00;;;;;;5087479;28;20465;-74
2021/09/27 02:30:34;;;;;;;34.97;32.47;;;16.60;93.20;;;;;;5083929;28;20491;-73
2021/09/27 02:33:11;;;;;;;34.27;31.93;;;16.60;93.30;;;;;;5081877;28;20461;-73
2021/09/27 02:35:50;;;;;;;33.30;30.90;;;16.50;93.40;;;;;;5084486;28;20795;-73
2021/09/27 02:38:24;;;;;;;34.47;32.07;;;16.40;93.80;;;;;;5089479;28;20950;-73
2021/09/27 02:40:57;;;;;;;34.30;31.90;;;16.40;93.80;;;;;;5084154;28;20473;-72
2021/09/27 02:43:24;;;;;;;34.23;31.50;;;16.40;93.90;;;;;;5085431;28;20942;-73
2021/09/27 02:45:53;;;;;;;35.43;32.73;;;16.40;93.80;;;;;;5089740;28;20453;-74
2021/09/27 02:48:31;;;;;;;32.47;30.27;;;16.50;93.70;;;;;;5087644;28;20460;-74
2021/09/27 02:51:00;;;;;;;34.20;31.60;;;16.50;93.60;;;;;;5086442;28;20560;-76
2021/09/27 02:53:27;;;;;;;33.33;31.07;;;16.40;93.60;;;;;;5086519;28;20596;-74
2021/09/27 02:56:17;;;;;;;35.37;32.77;;;16.40;93.70;;;;;;5090412;28;20467;-74
2021/09/27 02:58:49;;;;;;;33.53;31.13;;;16.50;93.60;;;;;;5089430;28;20457;-74
2021/09/27 03:01:23;;;;;;;36.60;33.80;;;16.50;93.60;;;;;;5090193;28;20540;-74
2021/09/27 03:04:03;;;;;;;34.70;32.10;;;16.50;93.50;;;;;;5083727;28;20463;-74
2021/09/27 03:06:46;;;;;;;34.87;32.37;;;16.50;93.40;;;;;;5085125;28;20488;-74
2021/09/27 03:09:23;;;;;;;34.60;32.10;;;16.50;93.50;;;;;;5083857;28;20465;-74
2021/09/27 03:12:18;;;;;;;36.17;33.27;;;16.50;93.60;;;;;;5088009;28;20535;-74
2021/09/27 03:15:13;;;;;;;35.80;33.30;;;16.50;93.40;;;;;;5089492;28;20794;-74
2021/09/27 03:17:49;;;;;;;35.97;33.37;;;16.50;93.20;;;;;;5086484;28;21056;-74
2021/09/27 03:20:29;;;;;;;35.93;33.33;;;16.40;93.40;;;;;;5086893;28;20567;-74
2021/09/27 03:23:05;;;;;;;34.67;32.17;;;16.50;93.30;;;;;;5081669;28;20897;-74
2021/09/27 03:25:44;;;;;;;35.13;32.60;;;16.40;93.30;;;;;;5090836;28;21140;-74
2021/09/27 03:28:22;;;;;;;34.20;31.87;;;16.40;93.40;;;;;;5080033;28;20476;-74
2021/09/27 03:30:59;;;;;;;34.40;31.80;;;16.50;93.30;;;;;;5091011;28;20484;-74
2021/09/27 03:33:35;;;;;;;35.90;33.30;;;16.50;93.20;;;;;;5089111;28;20544;-74
2021/09/27 03:36:17;;;;;;;34.53;31.63;;;16.60;92.80;;;;;;5099860;28;20457;-74
2021/09/27 03:38:55;;;;;;;35.13;32.53;;;16.60;92.90;;;;;;5089328;28;20457;-74
2021/09/27 03:41:29;;;;;;;34.30;32.00;;;16.60;92.90;;;;;;5088481;28;20480;-74
2021/09/27 03:44:06;;;;;;;34.83;32.40;;;16.60;92.90;;;;;;5083350;28;20460;-76
2021/09/27 03:46:40;;;;;;;36.93;34.13;;;16.60;92.90;;;;;;5088023;28;20564;-75
2021/09/27 03:49:12;;;;;;;35.43;32.53;;;16.60;92.90;;;;;;5086048;28;20468;-74
2021/09/27 03:51:46;;;;;;;34.93;32.33;;;16.60;92.70;;;;;;5088865;28;20477;-74
2021/09/27 03:54:18;;;;;;;33.93;31.50;;;16.70;92.60;;;;;;5087249;28;20457;-75
2021/09/27 03:56:51;;;;;;;33.43;31.13;;;16.70;92.50;;;;;;5085880;28;20464;-74
2021/09/27 03:59:23;;;;;;;35.77;33.17;;;16.70;92.40;;;;;;5089124;28;20805;-74
2021/09/27 04:01:56;;;;;;;34.53;32.03;;;16.70;92.30;;;;;;5087810;28;20449;-74
2021/09/27 04:04:35;;;;;;;35.80;33.20;;;16.70;92.30;;;;;;5087587;28;20468;-74
2021/09/27 04:07:21;;;;;;;37.30;34.70;;;16.70;92.40;;;;;;5086705;28;20564;-74
2021/09/27 04:09:57;;;;;;;37.03;34.43;;;16.70;92.40;;;;;;5085908;28;20993;-74
2021/09/27 04:12:33;;;;;;;37.07;34.20;;;16.70;92.40;;;;;;5077790;28;20481;-74
2021/09/27 04:15:11;;;;;;;34.87;32.57;;;16.70;92.40;;;;;;5095496;28;20463;-74
2021/09/27 04:17:49;;;;;;;37.27;34.67;;;16.70;92.60;;;;;;5086179;28;20815;-73
2021/09/27 04:20:31;;;;;;;35.53;33.03;;;16.70;92.60;;;;;;5090459;28;20567;-73
2021/09/27 04:23:15;;;;;;;36.27;33.60;;;16.60;92.80;;;;;;5085967;28;20986;-73
2021/09/27 04:25:55;;;;;;;35.90;33.30;;;16.70;92.70;;;;;;5094574;28;20457;-73
2021/09/27 04:28:53;;;;;;;36.17;33.77;;;16.80;92.50;;;;;;5088175;28;20539;-73
2021/09/27 04:31:32;;;;;;;34.27;31.77;;;16.80;92.40;;;;;;5086649;28;20485;-73
2021/09/27 04:34:24;;;;;;;34.53;32.13;;;16.80;92.20;;;;;;5086542;28;20469;-72
2021/09/27 04:36:55;;;;;;;35.67;33.20;;;16.80;92.30;;;;;;5085436;28;20457;-74
2021/09/27 04:39:25;;;;;;;37.73;35.10;;;16.80;92.20;;;;;;5084050;28;20965;-74
2021/09/27 04:42:49;;;;;;;34.77;32.27;;;16.70;92.20;;;;;;5088552;28;20459;-74
2021/09/27 04:45:41;;;;;;;36.13;33.60;;;16.60;92.50;;;;;;5088465;28;20523;-74
2021/09/27 04:48:26;;;;;;;35.33;32.93;;;16.60;92.70;;;;;;5082130;28;20464;-74
2021/09/27 04:51:01;;;;;;;35.00;32.60;;;16.50;92.90;;;;;;5083917;28;21012;-74
2021/09/27 04:53:40;;;;;;;35.53;32.72;;;16.50;93.10;;;;;;5083769;28;20458;-76
2021/09/27 04:56:17;;;;;;;36.17;33.57;;;16.60;92.60;;;;;;5082388;28;20226;-74
2021/09/27 04:58:56;;;;;;;35.03;32.30;;;16.50;92.60;;;;;;5083767;28;20445;-78
2021/09/27 05:01:49;;;;;;;38.60;35.77;;;16.40;92.80;;;;;;5092325;28;20461;-73
2021/09/27 05:04:46;;;;;;;35.73;33.13;;;16.40;93.00;;;;;;5088098;28;20464;-73
2021/09/27 05:07:43;;;;;;;36.20;33.60;;;16.30;93.10;;;;;;5086848;28;20464;-75
2021/09/27 05:10:33;;;;;;;36.43;33.77;;;16.30;93.20;;;;;;5091396;28;20904;-74
2021/09/27 05:13:14;;;;;;;38.10;35.13;;;16.30;93.20;;;;;;5088483;28;20453;-74
2021/09/27 05:16:00;;;;;;;38.07;35.07;;;16.30;93.30;;;;;;5094932;28;20536;-75
2021/09/27 05:18:45;;;;;;;34.83;32.43;;;16.30;93.30;;;;;;5084195;28;21053;-76
2021/09/27 05:21:52;;;;;;;36.47;33.73;;;16.20;93.40;;;;;;5094117;28;20484;-75
2021/09/27 05:24:41;;;;;;;36.50;33.77;;;16.20;93.50;;;;;;5090254;28;20457;-75
2021/09/27 05:27:41;;;;;;;35.77;33.27;;;16.10;93.60;;;;;;5089210;28;20459;-76
2021/09/27 05:30:17;;;;;;;36.43;33.73;;;16.20;93.40;;;;;;5086809;28;20481;-75
2021/09/27 05:32:52;;;;;;;39.13;36.33;;;16.10;93.40;;;;;;5091165;28;20473;-75
2021/09/27 05:35:35;;;;;;;36.97;34.27;;;16.10;93.40;;;;;;5090674;28;20456;-75
2021/09/27 05:38:12;;;;;;;36.07;33.30;;;16.10;93.50;;;;;;5092082;28;20499;-74
2021/09/27 05:40:46;;;;;;;38.20;35.20;;;16.10;93.30;;;;;;5085638;28;20564;-74
2021/09/27 05:43:40;;;;;;;36.53;33.93;;;16.10;93.40;;;;;;5089429;28;20452;-74
2021/09/27 05:46:23;;;;;;;37.77;34.40;;;16.10;93.40;;;;;;5090964;28;20469;-76
2021/09/27 05:48:58;;;;;;;37.10;34.10;;;16.10;93.50;;;;;;5092680;28;20453;-74
2021/09/27 05:51:33;;;;;;;37.40;34.60;;;16.10;93.30;;;;;;5091847;28;21040;-74
2021/09/27 05:54:08;;;;;;;36.77;34.10;;;16.10;93.10;;;;;;5076967;28;20456;-73
2021/09/27 05:56:43;;;;;;;34.77;32.17;;;16.20;93.00;;;;;;5086071;28;20471;-74
2021/09/27 05:59:17;;;;;;;38.23;35.53;;;16.20;92.90;;;;;;5091580;28;20453;-74
2021/09/27 06:01:56;;;;;;;37.00;34.30;;;16.20;93.00;;;;;;5094202;28;20544;-73
2021/09/27 06:04:30;;;;;;;37.43;34.70;;;16.20;92.80;;;;;;5092347;28;20458;-74
2021/09/27 06:07:07;;;;;;;36.53;33.93;;;16.20;92.60;;;;;;5092412;28;20469;-75
2021/09/27 06:09:48;;;;;;;36.10;33.50;;;16.30;92.50;;;;;;5094100;28;20821;-74
2021/09/27 06:12:26;;;;;;;37.37;34.47;;;16.40;92.00;;;;;;5098716;28;20508;-74
2021/09/27 06:14:58;;;;;;;36.80;34.20;;;16.50;91.50;;;;;;5097152;28;20931;-74
2021/09/27 06:17:42;;;;;;;35.23;32.63;;;16.60;91.20;;;;;;5078798;28;20466;-74
2021/09/27 06:20:15;;;;;;;37.43;34.33;;;16.60;91.10;;;;;;5099538;28;20515;-74
2021/09/27 06:23:04;;;;;;;36.30;33.60;;;16.70;91.00;;;;;;5105813;27;20450;-74
2021/09/27 06:25:39;;;;;;;36.33;33.43;;;16.80;90.60;;;;;;5087387;28;20472;-74
2021/09/27 06:28:17;;;;;;;34.60;32.30;;;16.90;90.20;;;;;;5076280;28;20475;-73
2021/09/27 06:30:50;;;;;;;35.30;32.90;;;16.90;89.70;;;;;;5084034;28;20484;-73
2021/09/27 06:33:23;;;;;;;35.83;33.23;;;17.00;89.70;;;;;;5089069;28;20527;-74
2021/09/27 06:35:53;;;;;;;36.67;33.97;;;17.10;89.40;;;;;;5090159;28;20449;-74
2021/09/27 06:38:28;;;;;;;34.93;32.10;;;17.10;89.20;;;;;;5098442;28;20468;-74
2021/09/27 06:40:55;;;;;;;34.93;32.63;;;17.20;88.90;;;;;;5088228;28;20476;-75
2021/09/27 06:43:24;;;;;;;34.03;31.53;;;17.30;88.60;;;;;;5079704;28;20488;-76
2021/09/27 06:45:53;;;;;;;35.50;33.00;;;17.40;88.20;;;;;;5078879;28;20466;-72
2021/09/27 06:48:21;;;;;;;34.97;32.40;;;17.40;88.00;;;;;;5082861;28;20499;-72
2021/09/27 06:50:49;;;;;;;35.17;32.47;;;17.50;88.10;;;;;;5087683;28;20497;-72
2021/09/27 06:53:17;;;;;;;36.20;33.60;;;17.60;87.80;;;;;;5090549;28;21223;-73
2021/09/27 06:55:45;;;;;;;35.03;32.37;;;17.70;87.50;;;;;;5094889;28;20459;-73
2021/09/27 06:58:12;;;;;;;36.67;34.07;;;17.70;87.40;;;;;;5090268;28;20821;-72
2021/09/27 07:00:41;;;;;;;33.67;31.27;;;17.70;87.30;;;;;;5101822;28;20468;-72
2021/09/27 07:03:08;;;;;;;35.90;33.40;;;17.80;87.20;;;;;;5086523;28;20468;-72
2021/09/27 07:05:35;;;;;;;35.00;32.27;;;17.90;87.00;;;;;;5089508;28;20457;-73
2021/09/27 07:08:02;;;;;;;34.97;32.07;;;17.90;86.90;;;;;;5089741;28;20920;-72
2021/09/27 07:10:30;;;;;;;32.83;30.53;;;18.00;86.50;;;;;;5088072;28;21005;-72
2021/09/27 07:12:57;;;;;;;33.13;30.93;;;18.10;86.00;;;;;;5089712;28;20583;-73
2021/09/27 07:15:24;;;;;;;33.20;30.90;;;18.20;85.60;;;;;;5087686;28;20556;-72
2021/09/27 07:17:51;;;;;;;34.90;32.60;;;18.30;85.20;;;;;;5089689;28;20449;-72
2021/09/27 07:20:21;;;;;;;32.77;30.60;;;18.40;84.50;;;;;;5098615;28;21044;-72
2021/09/27 07:22:48;;;;;;;32.53;30.50;;;18.50;84.10;;;;;;5088978;28;20454;-72
2021/09/27 07:25:17;;;;;;;32.53;30.43;;;18.40;84.40;;;;;;5089127;28;20475;-72
2021/09/27 07:27:45;;;;;;;33.23;31.00;;;18.40;84.40;;;;;;5085252;28;20453;-72
2021/09/27 07:30:13;;;;;;;35.23;32.73;;;18.50;84.40;;;;;;5082454;28;20473;-71
2021/09/27 07:32:41;;;;;;;31.17;29.17;;;18.50;84.40;;;;;;5089094;28;20477;-72
2021/09/27 07:35:10;;;;;;;35.83;32.93;;;18.60;84.10;;;;;;5088763;28;20570;-72
2021/09/27 07:37:38;;;;;;;32.40;30.30;;;18.70;83.70;;;;;;5080026;28;20566;-72
2021/09/27 07:40:07;;;;;;;32.00;29.87;;;18.80;83.60;;;;;;5087018;28;20503;-72
2021/09/27 07:42:34;;;;;;;31.97;29.73;;;18.80;83.40;;;;;;5084998;28;20457;-72
2021/09/27 07:45:03;;;;;;;31.47;29.47;;;18.90;83.00;;;;;;5080993;28;20480;-72
2021/09/27 07:47:30;;;;;;;31.70;29.63;;;19.00;82.40;;;;;;5086766;27;20963;-72
2021/09/27 07:49:57;;;;;;;32.30;30.00;;;19.10;82.20;;;;;;5091667;28;20468;-72
2021/09/27 07:52:24;;;;;;;34.37;31.77;;;19.20;82.30;;;;;;5083014;28;20893;-72
2021/09/27 07:54:51;;;;;;;32.40;30.20;;;19.30;82.10;;;;;;5099603;28;20544;-72
2021/09/27 07:57:18;;;;;;;31.57;29.17;;;19.30;81.80;;;;;;5089251;28;20453;-73
2021/09/27 07:59:46;;;;;;;32.60;30.30;;;19.30;81.70;;;;;;5080821;28;21059;-72
2021/09/27 08:02:18;;;;;;;32.30;29.87;;;19.40;81.70;;;;;;5087582;28;20477;-72
2021/09/27 08:04:45;;;;;;;32.33;30.10;;;19.50;81.10;;;;;;5089490;28;20460;-72
2021/09/27 08:07:13;;;;;;;33.83;30.90;;;19.60;80.80;;;;;;5089902;27;20974;-72
2021/09/27 08:09:40;;;;;;;32.30;29.83;;;19.80;80.60;;;;;;5084434;28;20516;-72
2021/09/27 08:12:08;;;;;;;33.23;30.73;;;19.90;79.90;;;;;;5095693;27;20984;-72
2021/09/27 08:14:35;;;;;;;31.93;29.73;;;19.90;79.50;;;;;;5091739;28;20458;-72
2021/09/27 08:17:02;;;;;;;31.87;29.87;;;20.00;79.00;;;;;;5080877;28;20457;-72
2021/09/27 08:19:30;;;;;;;32.60;30.60;;;20.10;78.50;;;;;;5080878;28;20465;-72
2021/09/27 08:21:57;;;;;;;32.53;30.20;;;20.10;78.60;;;;;;5090809;28;20484;-72
2021/09/27 08:24:24;;;;;;;33.30;31.10;;;20.20;78.50;;;;;;5090344;28;20466;-73
2021/09/27 08:26:51;;;;;;;32.00;29.60;;;20.30;78.20;;;;;;5094607;28;20554;-73
2021/09/27 08:29:25;;;;;;;32.03;29.93;;;20.40;77.80;;;;;;5088808;28;22459;-73
2021/09/27 08:31:52;;;;;;;33.40;31.20;;;20.60;76.90;;;;;;5089324;28;20992;-73
2021/09/27 08:34:19;;;;;;;30.70;28.70;;;20.60;76.60;;;;;;5088974;28;20923;-73
2021/09/27 08:36:49;;;;;;;32.47;30.20;;;20.60;76.40;;;;;;5099632;28;20465;-73
2021/09/27 08:39:16;;;;;;;33.10;31.00;;;20.70;76.40;;;;;;5088548;28;20489;-73
2021/09/27 08:41:52;;;;;;;31.47;29.37;;;20.70;75.70;;;;;;5100432;28;20479;-72
2021/09/27 08:44:36;;;;;;;30.63;28.63;;;20.70;75.70;;;;;;5083564;28;20459;-73
2021/09/27 08:47:12;;;;;;;29.80;28.03;;;20.80;75.00;;;;;;5078060;28;20464;-72
2021/09/27 08:49:44;;;;;;;29.80;28.00;;;20.90;73.60;;;;;;5087055;28;20475;-74
2021/09/27 08:52:15;;;;;;;30.03;28.13;;;20.90;73.10;;;;;;5093365;28;20480;-73
2021/09/27 08:54:44;;;;;;;30.10;28.40;;;20.90;72.60;;;;;;5096980;28;20945;-73
2021/09/27 08:57:22;;;;;;;30.77;28.87;;;21.00;72.50;;;;;;5089732;28;20475;-73
2021/09/27 08:59:57;;;;;;;32.17;29.90;;;21.10;72.50;;;;;;5093497;28;20569;-73
2021/09/27 09:02:36;;;;;;;30.60;28.80;;;21.10;72.60;;;;;;5092181;28;20530;-73
2021/09/27 09:05:15;;;;;;;32.47;30.30;;;21.10;72.10;;;;;;5090642;28;20457;-73
2021/09/27 09:07:49;;;;;;;30.20;28.33;;;21.10;72.40;;;;;;5091150;28;20471;-73
2021/09/27 09:10:28;;;;;;;30.53;28.63;;;21.00;72.00;;;;;;5091333;28;20835;-73
2021/09/27 09:13:00;;;;;;;30.97;29.10;;;21.10;71.80;;;;;;5092581;28;20529;-75
2021/09/27 09:15:29;;;;;;;31.40;29.50;;;21.20;72.00;;;;;;5090497;28;20461;-76
2021/09/27 09:17:59;;;;;;;31.23;29.00;;;21.20;72.00;;;;;;5093534;28;20896;-74
2021/09/27 09:20:43;;;;;;;30.27;28.57;;;21.40;71.10;;;;;;5080155;28;20488;-75
2021/09/27 09:23:18;;;;;;;30.60;28.70;;;21.40;70.40;;;;;;5084339;28;20453;-74
2021/09/27 09:25:45;;;;;;;38.10;31.17;;;21.40;70.50;;;;;;5097160;28;20479;-74
2021/09/27 09:28:12;;;;;;;30.53;27.67;;;21.60;70.10;;;;;;5085795;28;20468;-74
2021/09/27 09:30:45;;;;;;;153.23;44.87;;;21.70;69.90;;;;;;5086284;28;20469;-77
2021/09/27 09:33:50;;;;;;;69.83;36.07;;;21.80;71.20;;;;;;5092064;28;20982;-75
2021/09/27 09:36:21;;;;;;;84.43;35.33;;;22.10;69.90;;;;;;5077920;28;20457;-75
2021/09/27 09:38:50;;;;;;;32.83;29.93;;;22.40;69.50;;;;;;5091974;28;20449;-76
2021/09/27 09:41:17;;;;;;;36.33;32.53;;;22.60;68.60;;;;;;5088720;28;20559;-78
2021/09/27 09:43:48;;;;;;;55.37;33.33;;;22.70;68.10;;;;;;5092645;28;20444;-75
2021/09/27 09:46:28;;;;;;;30.00;28.20;;;22.90;67.90;;;;;;5091266;28;20457;-74
2021/09/27 09:49:03;;;;;;;29.50;27.70;;;23.10;67.10;;;;;;5089629;28;21171;-79
2021/09/27 09:51:36;;;;;;;29.87;28.17;;;23.20;65.40;;;;;;5075745;28;20579;-77
2021/09/27 09:54:15;;;;;;;32.37;30.30;;;23.20;65.00;;;;;;5088775;28;20477;-75
2021/09/27 09:56:46;;;;;;;30.60;28.70;;;23.30;65.30;;;;;;5089187;28;20492;-74
2021/09/27 09:59:26;;;;;;;32.00;29.90;;;23.30;65.70;;;;;;5089915;28;20823;-75
2021/09/27 10:01:55;;;;;;;32.57;30.37;;;23.40;65.70;;;;;;5091645;28;20452;-75
2021/09/27 10:04:26;;;;;;;36.83;34.33;;;23.50;65.60;;;;;;5084741;28;20934;-75
2021/09/27 10:07:01;;;;;;;33.90;31.80;;;23.60;65.20;;;;;;5090481;28;20544;-76
2021/09/27 10:09:34;;;;;;;33.37;31.37;;;23.80;64.60;;;;;;5090036;28;20481;-75
2021/09/27 10:12:03;;;;;;;32.00;30.07;;;23.90;63.70;;;;;;5091187;28;20457;-74
2021/09/27 10:14:39;;;;;;;30.80;29.00;;;24.00;63.50;;;;;;5091915;28;20464;-74
2021/09/27 10:17:29;;;;;;;31.40;29.60;;;24.00;62.10;;;;;;5091057;28;20486;-75
2021/09/27 10:20:06;;;;;;;30.60;28.87;;;23.90;61.70;;;;;;5078664;28;21016;-76
2021/09/27 10:22:37;;;;;;;32.23;30.40;;;24.00;61.50;;;;;;5087697;28;20532;-76
2021/09/27 10:25:26;;;;;;;30.83;29.03;;;23.90;61.80;;;;;;5083668;28;20461;-76
2021/09/27 10:27:53;;;;;;;31.60;29.80;;;23.80;62.20;;;;;;5090219;28;20479;-76
2021/09/27 10:30:23;;;;;;;32.80;30.90;;;23.90;62.30;;;;;;5088907;28;20486;-76
2021/09/27 10:32:54;;;;;;;31.10;29.30;;;23.90;62.20;;;;;;5090544;28;20481;-76
2021/09/27 10:35:28;;;;;;;30.77;28.87;;;23.90;62.30;;;;;;5093518;28;20464;-76
2021/09/27 10:38:02;;;;;;;32.20;30.10;;;24.00;62.10;;;;;;5090857;28;20453;-75
2021/09/27 10:40:33;;;;;;;29.70;27.80;;;24.10;61.70;;;;;;5096296;28;21356;-75
2021/09/27 10:43:01;;;;;;;31.03;29.23;;;24.10;61.10;;;;;;5090447;28;20467;-75
2021/09/27 10:45:30;;;;;;;30.30;28.50;;;24.10;61.10;;;;;;5085327;28;20457;-73
2021/09/27 10:47:59;;;;;;;29.07;27.47;;;23.90;61.30;;;;;;5084590;28;20826;-74
2021/09/27 10:50:31;;;;;;;31.30;29.40;;;23.90;61.10;;;;;;5082793;28;21019;-73
2021/09/27 10:53:05;;;;;;;32.23;30.13;;;24.00;61.30;;;;;;5089472;28;21290;-76
2021/09/27 10:55:49;;;;;;;28.37;26.77;;;24.20;61.00;;;;;;5099751;28;20455;-76
2021/09/27 10:58:31;;;;;;;30.07;28.20;;;24.30;59.60;;;;;;5091420;28;20503;-77
2021/09/27 11:00:58;;;;;;;31.10;29.20;;;24.30;59.50;;;;;;5086803;28;20592;-75
2021/09/27 11:03:30;;;;;;;29.23;27.43;;;24.40;59.60;;;;;;5090155;28;20546;-74
2021/09/27 11:06:01;;;;;;;30.53;28.67;;;24.40;60.00;;;;;;5089705;28;20449;-76
2021/09/27 11:08:50;;;;;;;28.50;26.90;;;24.40;59.50;;;;;;5086487;28;20449;-75
2021/09/27 11:11:50;;;;;;;28.97;27.27;;;24.30;59.40;;;;;;5094918;28;20473;-75
2021/09/27 11:14:26;;;;;;;29.27;27.47;;;24.20;59.60;;;;;;5087625;28;20473;-75
2021/09/27 11:17:08;;;;;;;30.97;29.07;;;23.80;60.60;;;;;;5081325;28;20540;-75
2021/09/27 11:19:40;;;;;;;29.70;27.90;;;24.00;60.40;;;;;;5086207;28;20502;-75
2021/09/27 11:22:39;;;;;;;28.30;26.60;;;24.20;60.40;;;;;;5088505;28;20461;-77
2021/09/27 11:25:14;;;;;;;28.87;27.17;;;24.40;59.10;;;;;;5062751;28;20488;-75
2021/09/27 11:27:43;;;;;;;28.63;26.83;;;24.60;59.00;;;;;;5074276;28;20465;-74
2021/09/27 11:30:38;;;;;;;28.37;26.77;;;24.70;58.60;;;;;;5072955;28;20478;-74
2021/09/27 11:33:16;;;;;;;29.50;27.67;;;24.80;58.60;;;;;;5090841;28;20481;-74
2021/09/27 11:35:46;;;;;;;28.90;27.20;;;24.90;57.90;;;;;;5074918;28;20469;-74
2021/09/27 11:38:30;;;;;;;28.63;26.93;;;25.00;57.60;;;;;;5089253;28;20445;-74
2021/09/27 11:41:21;;;;;;;28.73;27.03;;;25.10;57.20;;;;;;5093499;28;20473;-74
2021/09/27 11:43:56;;;;;;;29.30;27.60;;;25.20;57.10;;;;;;5083906;28;20974;-75
2021/09/27 11:46:29;;;;;;;29.00;27.40;;;25.20;56.90;;;;;;5087273;28;20463;-75
2021/09/27 11:49:03;;;;;;;29.40;27.50;;;25.20;57.10;;;;;;5088295;28;20479;-74
2021/09/27 11:51:38;;;;;;;28.87;27.17;;;25.30;57.00;;;;;;5101577;28;20986;-75
2021/09/27 11:54:42;;;;;;;28.07;26.57;;;25.40;56.40;;;;;;5084813;28;20485;-75
2021/09/27 11:57:22;;;;;;;28.93;27.33;;;25.50;56.60;;;;;;5084567;28;20805;-75
2021/09/27 12:00:01;;;;;;;28.70;26.93;;;25.60;56.50;;;;;;5079545;28;21019;-75
2021/09/27 12:02:34;;;;;;;29.63;28.03;;;25.70;56.30;;;;;;5088141;28;20455;-74
2021/09/27 12:05:23;;;;;;;29.23;27.50;;;25.80;56.00;;;;;;5092821;28;20456;-74
2021/09/27 12:07:54;;;;;;;28.13;26.50;;;25.90;56.00;;;;;;5086522;28;20528;-74
2021/09/27 12:10:27;;;;;;;29.67;27.87;;;26.00;55.80;;;;;;5082839;28;20474;-75
2021/09/27 12:13:00;;;;;;;29.23;27.53;;;26.20;55.70;;;;;;5088208;28;20485;-75
2021/09/27 12:15:34;;;;;;;30.47;28.67;;;26.40;55.10;;;;;;5096058;28;20469;-74
2021/09/27 12:18:01;;;;;;;29.00;27.20;;;26.60;55.10;;;;;;5085990;28;20457;-75
2021/09/27 12:20:37;;;;;;;29.57;27.87;;;26.70;54.10;;;;;;5098963;28;20523;-75
2021/09/27 12:23:08;;;;;;;30.60;28.70;;;26.70;54.40;;;;;;5075346;28;20449;-75
2021/09/27 12:25:38;;;;;;;30.00;28.20;;;26.80;54.50;;;;;;5095829;28;20491;-74
2021/09/27 12:28:07;;;;;;;28.53;26.83;;;26.90;54.00;;;;;;5085037;28;21002;-75
2021/09/27 12:30:40;;;;;;;31.83;29.83;;;26.90;54.10;;;;;;5094077;28;20476;-74
2021/09/27 12:33:11;;;;;;;31.40;29.57;;;27.10;54.00;;;;;;5074516;28;20467;-75
2021/09/27 12:35:40;;;;;;;31.83;29.80;;;27.00;52.60;;;;;;5078710;28;20468;-74
2021/09/27 12:38:07;;;;;;;28.23;26.63;;;26.90;53.10;;;;;;5082451;28;20468;-75
2021/09/27 12:40:41;;;;;;;32.53;30.33;;;26.90;53.80;;;;;;5099632;28;20476;-74
2021/09/27 12:43:13;;;;;;;30.60;28.80;;;26.80;53.90;;;;;;5090944;28;20466;-74
2021/09/27 12:45:44;;;;;;;28.80;27.10;;;26.80;53.80;;;;;;5082077;28;20446;-75
2021/09/27 12:48:18;;;;;;;29.93;28.23;;;26.70;53.90;;;;;;5086563;28;20845;-75
2021/09/27 12:50:51;;;;;;;31.27;29.37;;;26.70;54.30;;;;;;5092989;28;20475;-74
2021/09/27 12:53:22;;;;;;;30.60;28.80;;;26.80;54.30;;;;;;5087849;28;20468;-75
2021/09/27 12:55:54;;;;;;;28.90;27.10;;;26.80;54.40;;;;;;5085429;28;20570;-75
2021/09/27 12:58:27;;;;;;;28.60;27.00;;;26.80;54.40;;;;;;5087684;28;20508;-75
2021/09/27 13:00:55;;;;;;;28.97;27.27;;;26.70;55.00;;;;;;5098311;28;20476;-75
2021/09/27 13:03:26;;;;;;;29.63;27.80;;;26.60;55.60;;;;;;5088702;28;20453;-79
2021/09/27 14:17:49;;;;;;;28.90;27.20;;;23.30;63.80;;;;;;5116919;27;20589;-76